Time;durP1;ratioP1;P1;durP2;ratioP2;P2;SDS_P1;SDS_P2;PMS_P1;PMS_P2;Temp;Humidity;BMP_temperature;BMP_pressure;BME280_temperature;BME280_humidity;BME280_pressure;Samples;Min_cycle;Max_cycle;Signal;HPM_P1;HPM_P2
2022/06/11 00:02:00;;;;;;;7.80;7.10;;;;;;;;;;6222099;28;20256;-71
2022/06/11 00:05:21;;;;;;;7.03;6.32;;;;;;;;;;6221483;28;20260;-72
2022/06/11 00:08:44;;;;;;;9.15;6.50;;;;;;;;;;6221476;28;20233;-72
2022/06/11 00:12:06;;;;;;;7.47;6.78;;;;;;;;;;6226698;28;20256;-72
2022/06/11 00:15:27;;;;;;;9.20;6.53;;;;;;;;;;6227571;28;20239;-72
2022/06/11 00:18:48;;;;;;;9.13;7.72;;;;;;;;;;6220753;28;20641;-72
2022/06/11 00:22:09;;;;;;;9.50;7.72;;;;;;;;;;6222852;28;20232;-72
2022/06/11 00:25:32;;;;;;;7.97;7.18;;;;;;;;;;6228105;28;20224;-71
2022/06/11 00:28:53;;;;;;;8.52;7.82;;;;;;;;;;6225421;28;22219;-72
2022/06/11 00:32:15;;;;;;;11.27;8.10;;;;;;;;;;6223796;28;20312;-74
2022/06/11 00:35:36;;;;;;;7.78;6.93;;;;;;;;;;6209519;28;20232;-71
2022/06/11 00:38:57;;;;;;;7.32;6.78;;;;;;;;;;6222539;28;20233;-72
2022/06/11 00:42:22;;;;;;;8.10;7.35;;;;;;;;;;6225673;28;20228;-72
2022/06/11 00:45:45;;;;;;;7.35;6.25;;;;;;;;;;6224960;28;20232;-72
2022/06/11 00:49:10;;;;;;;7.22;6.53;;;;;;;;;;6223040;28;20228;-72
2022/06/11 00:52:32;;;;;;;9.30;8.35;;;;;;;;;;6215254;28;20618;-72
2022/06/11 00:55:52;;;;;;;8.50;7.78;;;;;;;;;;6222392;28;20571;-72
2022/06/11 00:59:16;;;;;;;8.35;6.95;;;;;;;;;;6221137;28;20237;-72
2022/06/11 01:02:38;;;;;;;10.63;8.18;;;;;;;;;;6216873;28;20232;-73
2022/06/11 01:06:04;;;;;;;8.43;7.72;;;;;;;;;;6207789;28;20228;-73
2022/06/11 01:09:30;;;;;;;8.60;6.95;;;;;;;;;;6222108;28;20767;-72
2022/06/11 01:12:54;;;;;;;9.18;8.30;;;;;;;;;;6219898;28;20610;-73
2022/06/11 01:16:22;;;;;;;10.70;7.97;;;;;;;;;;6221691;28;20692;-72
2022/06/11 01:19:55;;;;;;;9.32;7.78;;;;;;;;;;6216530;28;20319;-72
2022/06/11 01:23:35;;;;;;;7.90;6.22;;;;;;;;;;6220498;28;20414;-72
2022/06/11 01:27:15;;;;;;;6.93;6.07;;;;;;;;;;6221258;28;20543;-72
2022/06/11 01:30:39;;;;;;;8.90;6.55;;;;;;;;;;6223804;28;20237;-73
2022/06/11 01:34:04;;;;;;;9.85;6.13;;;;;;;;;;6219099;28;20244;-72
2022/06/11 01:37:27;;;;;;;8.50;5.03;;;;;;;;;;6218733;28;20320;-73
2022/06/11 01:40:50;;;;;;;8.50;5.07;;;;;;;;;;6204927;28;20232;-72
2022/06/11 01:44:12;;;;;;;8.25;5.30;;;;;;;;;;6218592;28;20241;-72
2022/06/11 01:47:35;;;;;;;5.07;4.68;;;;;;;;;;6224883;28;21010;-73
2022/06/11 01:51:07;;;;;;;6.63;5.18;;;;;;;;;;6224863;28;20240;-71
2022/06/11 01:54:33;;;;;;;6.20;5.35;;;;;;;;;;6210360;28;20331;-72
2022/06/11 01:58:03;;;;;;;7.95;5.85;;;;;;;;;;6220231;28;20228;-72
2022/06/11 02:01:27;;;;;;;5.53;5.13;;;;;;;;;;6219268;28;20319;-72
2022/06/11 02:04:53;;;;;;;5.47;4.88;;;;;;;;;;6222409;28;20237;-72
2022/06/11 02:08:19;;;;;;;8.60;6.07;;;;;;;;;;6220198;28;20225;-71
2022/06/11 02:11:40;;;;;;;6.38;5.85;;;;;;;;;;6219429;28;20602;-73
2022/06/11 02:15:03;;;;;;;10.15;5.85;;;;;;;;;;6221129;28;20232;-72
2022/06/11 02:18:25;;;;;;;7.30;6.00;;;;;;;;;;6218867;28;20221;-72
2022/06/11 02:22:04;;;;;;;6.47;5.88;;;;;;;;;;6222513;28;20678;-72
2022/06/11 02:25:26;;;;;;;7.88;6.70;;;;;;;;;;6223286;28;20343;-72
2022/06/11 02:28:48;;;;;;;6.35;5.88;;;;;;;;;;6225291;28;20941;-72
2022/06/11 02:32:10;;;;;;;6.88;5.53;;;;;;;;;;6228719;28;20244;-72
2022/06/11 02:35:36;;;;;;;8.05;7.28;;;;;;;;;;6228276;28;20228;-73
2022/06/11 02:38:59;;;;;;;6.63;5.88;;;;;;;;;;6222060;28;20324;-73
2022/06/11 02:42:21;;;;;;;7.75;6.05;;;;;;;;;;6225146;28;20279;-72
2022/06/11 02:45:41;;;;;;;6.10;5.60;;;;;;;;;;6226272;28;20251;-72
2022/06/11 02:49:02;;;;;;;7.13;6.43;;;;;;;;;;6224555;28;20817;-72
2022/06/11 02:52:24;;;;;;;6.57;5.72;;;;;;;;;;6223003;28;20228;-72
2022/06/11 02:55:46;;;;;;;5.85;5.45;;;;;;;;;;6196687;28;20258;-72
2022/06/11 02:59:07;;;;;;;10.02;6.10;;;;;;;;;;6228169;28;20319;-72
2022/06/11 03:02:27;;;;;;;6.85;6.25;;;;;;;;;;6228194;28;20228;-71
2022/06/11 03:05:48;;;;;;;7.80;5.82;;;;;;;;;;6224292;28;20224;-72
2022/06/11 03:09:09;;;;;;;6.55;6.00;;;;;;;;;;6226720;28;20827;-72
2022/06/11 03:12:31;;;;;;;11.98;7.10;;;;;;;;;;6226608;28;20236;-72
2022/06/11 03:15:51;;;;;;;9.43;7.30;;;;;;;;;;6226026;28;20504;-73
2022/06/11 03:19:13;;;;;;;5.75;5.38;;;;;;;;;;6224471;28;20217;-73
2022/06/11 03:22:33;;;;;;;8.98;6.03;;;;;;;;;;6220585;28;20350;-72
2022/06/11 03:25:54;;;;;;;7.25;5.50;;;;;;;;;;6224941;28;20233;-73
2022/06/11 03:29:16;;;;;;;7.57;5.85;;;;;;;;;;6228407;28;20567;-74
2022/06/11 03:32:37;;;;;;;6.75;5.80;;;;;;;;;;6223203;28;20233;-73
2022/06/11 03:35:57;;;;;;;7.32;6.03;;;;;;;;;;6224238;28;20736;-74
2022/06/11 03:39:18;;;;;;;8.55;6.07;;;;;;;;;;6224617;28;20229;-73
2022/06/11 03:42:39;;;;;;;6.50;5.82;;;;;;;;;;6223640;28;20228;-73
2022/06/11 03:46:01;;;;;;;6.05;5.47;;;;;;;;;;6225327;28;20232;-72
2022/06/11 03:49:21;;;;;;;7.25;5.72;;;;;;;;;;6220923;28;20225;-73
2022/06/11 03:52:42;;;;;;;7.68;6.43;;;;;;;;;;6222378;28;20233;-72
2022/06/11 03:56:03;;;;;;;7.28;6.55;;;;;;;;;;6225561;28;20229;-72
2022/06/11 03:59:24;;;;;;;8.65;5.88;;;;;;;;;;6225691;28;20254;-73
2022/06/11 04:02:46;;;;;;;6.18;5.68;;;;;;;;;;6224181;28;20245;-73
2022/06/11 04:06:07;;;;;;;6.38;5.78;;;;;;;;;;6223696;28;20237;-73
2022/06/11 04:09:31;;;;;;;8.48;6.78;;;;;;;;;;6224350;28;20216;-73
2022/06/11 04:12:52;;;;;;;12.40;6.43;;;;;;;;;;6227235;28;20240;-73
2022/06/11 04:16:22;;;;;;;8.25;6.10;;;;;;;;;;6225090;28;20232;-71
2022/06/11 04:19:45;;;;;;;6.28;5.68;;;;;;;;;;6227120;28;20228;-73
2022/06/11 04:23:05;;;;;;;9.90;6.68;;;;;;;;;;6488612;23;20232;-72
2022/06/11 04:26:28;;;;;;;7.28;6.40;;;;;;;;;;6231639;28;21702;-73
2022/06/11 04:29:51;;;;;;;9.88;7.10;;;;;;;;;;6195343;28;20587;-73
2022/06/11 04:33:11;;;;;;;8.90;6.55;;;;;;;;;;6230736;28;20232;-72
2022/06/11 04:36:34;;;;;;;6.97;5.97;;;;;;;;;;6226274;28;20241;-73
2022/06/11 04:39:56;;;;;;;7.28;6.55;;;;;;;;;;6203357;28;20447;-72
2022/06/11 04:43:17;;;;;;;6.38;5.72;;;;;;;;;;6196830;28;20236;-72
2022/06/11 04:46:38;;;;;;;7.00;6.35;;;;;;;;;;6201439;28;20304;-72
2022/06/11 04:50:01;;;;;;;8.02;6.63;;;;;;;;;;6204588;28;20229;-72
2022/06/11 04:53:23;;;;;;;6.30;5.60;;;;;;;;;;6201991;28;20240;-72
2022/06/11 04:56:43;;;;;;;6.03;5.38;;;;;;;;;;6207880;28;20791;-73
2022/06/11 05:00:05;;;;;;;7.63;5.38;;;;;;;;;;6207262;28;20233;-72
2022/06/11 05:03:26;;;;;;;8.93;6.00;;;;;;;;;;6204526;28;20241;-73
2022/06/11 05:06:47;;;;;;;6.15;5.38;;;;;;;;;;6206529;28;20233;-72
2022/06/11 05:10:10;;;;;;;6.63;5.40;;;;;;;;;;6199684;28;20311;-72
2022/06/11 05:13:30;;;;;;;10.38;6.55;;;;;;;;;;6206059;28;20229;-73
2022/06/11 05:16:51;;;;;;;9.88;6.93;;;;;;;;;;6201336;28;20610;-72
2022/06/11 05:20:12;;;;;;;6.30;5.70;;;;;;;;;;6202981;28;20480;-72
2022/06/11 05:23:33;;;;;;;9.82;5.93;;;;;;;;;;6210026;28;20611;-74
2022/06/11 05:26:56;;;;;;;8.25;5.85;;;;;;;;;;6206584;28;20225;-72
2022/06/11 05:30:19;;;;;;;7.10;6.45;;;;;;;;;;6204421;28;20237;-72
2022/06/11 05:33:40;;;;;;;7.55;6.85;;;;;;;;;;6206543;28;20229;-72
2022/06/11 05:37:00;;;;;;;8.68;7.45;;;;;;;;;;6196033;28;20233;-72
2022/06/11 05:40:23;;;;;;;7.75;6.55;;;;;;;;;;6201313;28;20614;-72
2022/06/11 05:43:45;;;;;;;7.32;6.60;;;;;;;;;;6202951;28;20237;-73
2022/06/11 05:47:07;;;;;;;7.25;5.95;;;;;;;;;;6204296;28;20240;-72
2022/06/11 05:50:29;;;;;;;8.57;6.88;;;;;;;;;;6203886;28;20515;-71
2022/06/11 05:53:52;;;;;;;11.50;7.78;;;;;;;;;;6198840;28;20236;-73
2022/06/11 05:57:14;;;;;;;8.18;7.47;;;;;;;;;;6202983;28;20256;-73
2022/06/11 06:00:37;;;;;;;10.65;7.90;;;;;;;;;;6211351;28;20233;-72
2022/06/11 06:03:57;;;;;;;8.82;7.63;;;;;;;;;;6204124;28;20224;-73
2022/06/11 06:07:18;;;;;;;8.00;6.88;;;;;;;;;;6212400;28;20618;-72
2022/06/11 06:10:38;;;;;;;7.85;7.15;;;;;;;;;;6209082;28;20237;-72
2022/06/11 06:13:59;;;;;;;8.63;7.82;;;;;;;;;;6210690;28;20237;-72
2022/06/11 06:17:21;;;;;;;9.15;7.82;;;;;;;;;;6206338;28;20225;-71
2022/06/11 06:20:41;;;;;;;11.05;9.80;;;;;;;;;;6206524;28;20229;-72
2022/06/11 06:24:02;;;;;;;9.68;8.88;;;;;;;;;;6210177;28;20221;-72
2022/06/11 06:27:23;;;;;;;9.77;8.88;;;;;;;;;;6208411;28;20516;-73
2022/06/11 06:30:44;;;;;;;16.63;8.60;;;;;;;;;;6205198;28;20226;-72
2022/06/11 06:34:06;;;;;;;9.93;8.90;;;;;;;;;;6211029;28;20249;-72
2022/06/11 06:37:27;;;;;;;9.65;8.82;;;;;;;;;;6207429;28;20226;-72
2022/06/11 06:40:48;;;;;;;11.80;9.80;;;;;;;;;;6204167;28;20225;-72
2022/06/11 06:44:08;;;;;;;10.48;9.48;;;;;;;;;;6205781;28;20224;-71
2022/06/11 06:47:29;;;;;;;10.45;9.35;;;;;;;;;;6201855;28;20225;-72
2022/06/11 06:50:52;;;;;;;10.27;9.25;;;;;;;;;;6197904;28;20230;-73
2022/06/11 06:54:13;;;;;;;15.32;9.82;;;;;;;;;;6189031;28;22365;-72
2022/06/11 06:57:34;;;;;;;8.75;7.95;;;;;;;;;;6206560;28;20260;-73
2022/06/11 07:00:55;;;;;;;10.07;9.13;;;;;;;;;;6211980;28;20311;-72
2022/06/11 07:04:16;;;;;;;10.70;8.80;;;;;;;;;;6202584;28;20279;-72
2022/06/11 07:07:38;;;;;;;11.95;10.77;;;;;;;;;;6211310;28;20341;-72
2022/06/11 07:10:58;;;;;;;11.80;9.10;;;;;;;;;;6204038;28;20249;-72
2022/06/11 07:14:19;;;;;;;10.63;9.57;;;;;;;;;;6203292;28;20229;-72
2022/06/11 07:17:41;;;;;;;11.70;10.65;;;;;;;;;;6201005;28;20237;-73
2022/06/11 07:21:03;;;;;;;11.00;9.93;;;;;;;;;;6206767;28;20312;-72
2022/06/11 07:24:26;;;;;;;10.63;9.32;;;;;;;;;;6202538;28;20221;-72
2022/06/11 07:27:50;;;;;;;9.52;8.70;;;;;;;;;;6204795;28;20308;-72
2022/06/11 07:31:10;;;;;;;11.52;10.07;;;;;;;;;;6205842;28;20229;-73
2022/06/11 07:34:31;;;;;;;10.48;9.40;;;;;;;;;;6209375;28;20237;-73
2022/06/11 07:37:52;;;;;;;9.30;8.38;;;;;;;;;;6205425;28;20228;-73
2022/06/11 07:41:14;;;;;;;11.52;9.02;;;;;;;;;;6211393;28;21138;-73
2022/06/11 07:44:36;;;;;;;9.10;8.30;;;;;;;;;;6198210;28;21002;-72
2022/06/11 07:47:56;;;;;;;8.40;7.15;;;;;;;;;;6202302;28;20607;-73
2022/06/11 07:51:18;;;;;;;10.98;8.52;;;;;;;;;;6198820;28;22049;-72
2022/06/11 07:54:39;;;;;;;8.93;8.18;;;;;;;;;;6207143;28;20788;-73
2022/06/11 07:58:01;;;;;;;7.68;6.95;;;;;;;;;;6204369;28;20264;-72
2022/06/11 08:01:21;;;;;;;9.70;8.02;;;;;;;;;;6208702;28;20237;-71
2022/06/11 08:04:42;;;;;;;8.27;7.40;;;;;;;;;;6209453;28;20312;-72
2022/06/11 08:08:04;;;;;;;11.07;8.25;;;;;;;;;;6203695;28;20233;-73
2022/06/11 08:11:24;;;;;;;8.45;7.63;;;;;;;;;;6204569;28;20228;-72
2022/06/11 08:14:46;;;;;;;8.18;7.38;;;;;;;;;;6204891;28;20237;-73
2022/06/11 08:18:07;;;;;;;8.40;6.45;;;;;;;;;;6201454;28;20525;-72
2022/06/11 08:21:28;;;;;;;7.30;6.57;;;;;;;;;;6203240;28;20261;-72
2022/06/11 08:24:49;;;;;;;7.10;5.72;;;;;;;;;;6205128;28;20604;-72
2022/06/11 08:28:11;;;;;;;10.77;7.78;;;;;;;;;;6206323;28;20542;-72
2022/06/11 08:31:33;;;;;;;9.00;7.95;;;;;;;;;;6207644;28;20295;-73
2022/06/11 08:34:54;;;;;;;8.30;7.43;;;;;;;;;;6209643;28;20229;-72
2022/06/11 08:38:14;;;;;;;10.77;7.82;;;;;;;;;;6197442;28;20229;-73
2022/06/11 08:41:36;;;;;;;7.47;6.80;;;;;;;;;;6203894;28;20225;-72
2022/06/11 08:44:57;;;;;;;12.98;6.25;;;;;;;;;;6199397;28;21846;-72
2022/06/11 08:48:33;;;;;;;7.43;6.72;;;;;;;;;;6199748;28;20232;-72
2022/06/11 08:51:56;;;;;;;5.07;4.53;;;;;;;;;;6202397;28;20323;-72
2022/06/11 08:55:18;;;;;;;4.45;3.42;;;;;;;;;;6197748;28;20966;-72
2022/06/11 08:58:45;;;;;;;4.35;3.42;;;;;;;;;;6200896;28;20240;-72
2022/06/11 09:02:14;;;;;;;4.82;2.88;;;;;;;;;;6201166;28;20748;-72
2022/06/11 09:05:46;;;;;;;3.22;2.80;;;;;;;;;;6202024;28;20224;-72
2022/06/11 09:09:11;;;;;;;4.95;3.33;;;;;;;;;;6190015;28;20497;-73
2022/06/11 09:12:53;;;;;;;4.00;2.20;;;;;;;;;;6208535;28;20225;-72
2022/06/11 09:16:19;;;;;;;6.88;3.05;;;;;;;;;;6202801;28;20241;-72
2022/06/11 09:19:45;;;;;;;3.90;2.63;;;;;;;;;;6205355;28;20241;-71
2022/06/11 09:23:21;;;;;;;4.55;3.03;;;;;;;;;;6204983;28;20340;-72
2022/06/11 09:26:44;;;;;;;5.80;3.80;;;;;;;;;;6205531;28;20233;-71
2022/06/11 09:30:06;;;;;;;4.45;3.53;;;;;;;;;;6203172;28;20226;-73
2022/06/11 09:33:29;;;;;;;4.45;3.03;;;;;;;;;;6206782;28;20232;-72
2022/06/11 09:36:54;;;;;;;3.92;3.63;;;;;;;;;;6212496;28;20248;-72
2022/06/11 09:40:20;;;;;;;4.15;3.38;;;;;;;;;;6209705;28;20261;-72
2022/06/11 09:43:45;;;;;;;4.05;2.80;;;;;;;;;;6206953;28;20248;-72
2022/06/11 09:47:10;;;;;;;4.10;2.80;;;;;;;;;;6207223;28;20638;-72
2022/06/11 09:50:35;;;;;;;2.42;2.20;;;;;;;;;;6204920;28;20552;-74
2022/06/11 09:54:04;;;;;;;3.00;2.70;;;;;;;;;;6209624;28;20233;-73
2022/06/11 09:57:34;;;;;;;3.70;2.35;;;;;;;;;;6206338;28;20232;-73
2022/06/11 10:00:57;;;;;;;4.60;2.63;;;;;;;;;;6209860;28;20341;-73
2022/06/11 10:04:20;;;;;;;3.58;2.22;;;;;;;;;;6207567;28;20233;-73
2022/06/11 10:07:42;;;;;;;3.58;2.42;;;;;;;;;;6203888;28;20921;-70
2022/06/11 10:11:04;;;;;;;7.22;2.22;;;;;;;;;;6202336;28;20234;-72
2022/06/11 10:14:30;;;;;;;4.43;2.05;;;;;;;;;;6208679;28;20233;-71
2022/06/11 10:17:53;;;;;;;5.93;3.20;;;;;;;;;;6208806;28;20226;-72
2022/06/11 10:21:15;;;;;;;4.15;1.98;;;;;;;;;;6205233;28;20233;-72
2022/06/11 10:24:37;;;;;;;3.88;2.40;;;;;;;;;;6205517;28;20229;-72
2022/06/11 10:28:00;;;;;;;4.38;2.60;;;;;;;;;;6202139;28;20697;-71
2022/06/11 10:31:25;;;;;;;6.78;2.95;;;;;;;;;;6194081;28;20489;-71
2022/06/11 10:34:47;;;;;;;2.45;1.77;;;;;;;;;;6205242;28;20319;-74
2022/06/11 10:38:13;;;;;;;3.60;1.90;;;;;;;;;;6204556;28;20314;-73
2022/06/11 10:41:42;;;;;;;3.28;2.08;;;;;;;;;;6189083;28;20244;-72
2022/06/11 10:45:03;;;;;;;5.43;2.47;;;;;;;;;;6205110;28;20228;-71
2022/06/11 10:48:26;;;;;;;5.90;3.30;;;;;;;;;;6200214;28;20238;-73
2022/06/11 10:51:50;;;;;;;5.63;2.58;;;;;;;;;;6201602;28;20587;-73
2022/06/11 10:55:13;;;;;;;6.25;2.58;;;;;;;;;;6203970;28;20237;-73
2022/06/11 10:58:36;;;;;;;6.10;3.20;;;;;;;;;;6202553;28;21191;-73
2022/06/11 11:01:59;;;;;;;5.50;2.85;;;;;;;;;;6207159;28;20324;-73
2022/06/11 11:05:21;;;;;;;6.00;2.30;;;;;;;;;;6201170;28;20233;-72
2022/06/11 11:08:50;;;;;;;5.22;3.45;;;;;;;;;;6206558;28;20761;-73
2022/06/11 11:12:17;;;;;;;7.13;2.97;;;;;;;;;;6205903;28;20240;-72
2022/06/11 11:15:39;;;;;;;7.72;3.47;;;;;;;;;;6205050;28;20240;-73
2022/06/11 11:19:05;;;;;;;8.70;3.25;;;;;;;;;;6202038;28;20559;-72
2022/06/11 11:22:29;;;;;;;5.85;2.80;;;;;;;;;;6207239;28;20241;-72
2022/06/11 11:25:51;;;;;;;5.32;2.85;;;;;;;;;;6200335;28;20241;-72
2022/06/11 11:29:13;;;;;;;6.00;3.22;;;;;;;;;;6200507;28;20237;-72
2022/06/11 11:32:38;;;;;;;8.13;2.70;;;;;;;;;;6183515;28;20249;-72
2022/06/11 11:36:17;;;;;;;9.25;3.33;;;;;;;;;;6202770;28;20318;-72
2022/06/11 11:39:48;;;;;;;8.30;3.55;;;;;;;;;;6207311;28;20237;-72
2022/06/11 11:43:10;;;;;;;8.80;3.92;;;;;;;;;;6205662;28;20505;-72
2022/06/11 11:46:33;;;;;;;7.45;3.10;;;;;;;;;;6205097;28;20229;-72
2022/06/11 11:49:55;;;;;;;6.50;2.97;;;;;;;;;;6208279;28;20225;-72
2022/06/11 11:53:19;;;;;;;8.68;3.00;;;;;;;;;;6208874;28;20233;-72
2022/06/11 11:56:41;;;;;;;7.93;2.67;;;;;;;;;;6202938;28;20241;-73
2022/06/11 12:00:04;;;;;;;5.18;3.53;;;;;;;;;;6201651;28;20660;-72
2022/06/11 12:03:34;;;;;;;8.55;3.47;;;;;;;;;;6202092;28;20248;-72
2022/06/11 12:06:56;;;;;;;6.35;2.67;;;;;;;;;;6202627;28;20248;-73
2022/06/11 12:10:23;;;;;;;8.82;2.67;;;;;;;;;;6204460;28;20248;-73
2022/06/11 12:13:46;;;;;;;5.78;2.50;;;;;;;;;;6208063;28;20228;-73
2022/06/11 12:17:19;;;;;;;5.03;2.72;;;;;;;;;;6209631;28;20228;-72
2022/06/11 12:20:41;;;;;;;6.45;2.95;;;;;;;;;;6206773;28;20517;-72
2022/06/11 12:24:06;;;;;;;7.50;2.78;;;;;;;;;;6204741;28;20472;-72
2022/06/11 12:27:30;;;;;;;6.47;3.60;;;;;;;;;;6205023;28;20229;-72
2022/06/11 12:30:53;;;;;;;6.07;2.75;;;;;;;;;;6207920;28;20225;-71
2022/06/11 12:34:15;;;;;;;7.10;2.88;;;;;;;;;;6203943;28;20634;-72
2022/06/11 12:37:40;;;;;;;8.18;4.03;;;;;;;;;;6200454;28;20253;-72
2022/06/11 12:41:10;;;;;;;7.47;3.20;;;;;;;;;;6197713;28;20221;-72
2022/06/11 12:44:39;;;;;;;6.45;2.85;;;;;;;;;;6195977;28;20237;-72
2022/06/11 12:48:05;;;;;;;7.03;2.92;;;;;;;;;;6199644;28;20236;-73
2022/06/11 12:51:32;;;;;;;8.00;2.83;;;;;;;;;;6204607;28;20257;-72
2022/06/11 12:55:03;;;;;;;5.70;2.53;;;;;;;;;;6204180;28;20222;-71
2022/06/11 12:58:31;;;;;;;8.88;3.03;;;;;;;;;;6202986;28;20832;-72
2022/06/11 13:01:55;;;;;;;7.03;3.28;;;;;;;;;;6204831;28;20233;-72
2022/06/11 13:05:26;;;;;;;6.75;4.03;;;;;;;;;;6202373;28;20609;-71
2022/06/11 13:08:52;;;;;;;4.20;2.53;;;;;;;;;;6201198;28;20221;-71
2022/06/11 13:12:21;;;;;;;8.93;3.45;;;;;;;;;;6197249;28;20614;-73
2022/06/11 13:15:54;;;;;;;6.78;2.95;;;;;;;;;;6200082;28;20232;-73
2022/06/11 13:19:29;;;;;;;5.88;2.63;;;;;;;;;;6202627;28;20617;-74
2022/06/11 13:22:54;;;;;;;6.63;3.28;;;;;;;;;;6205343;28;20237;-73
2022/06/11 13:26:18;;;;;;;7.63;3.35;;;;;;;;;;6208540;28;20232;-74
2022/06/11 13:29:47;;;;;;;7.57;3.95;;;;;;;;;;6204468;28;20237;-74
2022/06/11 13:33:18;;;;;;;6.82;2.92;;;;;;;;;;6205902;28;20232;-74
2022/06/11 13:36:44;;;;;;;9.13;3.35;;;;;;;;;;6201012;28;20244;-75
2022/06/11 13:40:20;;;;;;;7.80;3.38;;;;;;;;;;6203804;28;21042;-74
2022/06/11 13:43:55;;;;;;;9.63;3.40;;;;;;;;;;6202551;28;20981;-74
2022/06/11 13:47:25;;;;;;;8.10;2.80;;;;;;;;;;6197262;28;22266;-73
2022/06/11 13:50:51;;;;;;;14.30;3.90;;;;;;;;;;6191723;28;20603;-74
2022/06/11 13:58:04;;;;;;;7.00;2.83;;;;;;;;;;6203871;28;20237;-73
2022/06/11 14:01:31;;;;;;;3.80;2.35;;;;;;;;;;6199437;28;20220;-73
2022/06/11 14:04:52;;;;;;;8.13;3.17;;;;;;;;;;6197323;28;20795;-73
2022/06/11 14:08:15;;;;;;;11.35;3.53;;;;;;;;;;6205226;28;20241;-75
2022/06/11 14:11:46;;;;;;;7.93;3.88;;;;;;;;;;6206910;28;20233;-74
2022/06/11 14:15:15;;;;;;;7.75;2.70;;;;;;;;;;6204772;28;20232;-75
2022/06/11 14:18:39;;;;;;;7.13;2.67;;;;;;;;;;6201814;28;20228;-75
2022/06/11 14:22:00;;;;;;;6.53;2.97;;;;;;;;;;6209464;28;20233;-73
2022/06/11 14:25:35;;;;;;;10.23;3.78;;;;;;;;;;6211172;28;20300;-74
2022/06/11 14:28:58;;;;;;;8.45;3.20;;;;;;;;;;6206256;28;20225;-73
2022/06/11 14:32:27;;;;;;;8.10;3.40;;;;;;;;;;6209925;28;20240;-75
2022/06/11 14:35:56;;;;;;;6.75;2.67;;;;;;;;;;6203787;28;20307;-74
2022/06/11 14:39:29;;;;;;;9.48;3.15;;;;;;;;;;6209598;28;20598;-74
2022/06/11 14:43:01;;;;;;;6.05;3.10;;;;;;;;;;6211262;28;20539;-74
2022/06/11 14:46:39;;;;;;;6.85;3.75;;;;;;;;;;6205814;28;20327;-75
2022/06/11 14:50:00;;;;;;;11.05;3.75;;;;;;;;;;6205028;28;20308;-75
2022/06/11 14:53:28;;;;;;;8.68;3.30;;;;;;;;;;6208445;28;20225;-74
2022/06/11 14:57:06;;;;;;;6.65;2.83;;;;;;;;;;6211277;28;20236;-74
2022/06/11 15:00:37;;;;;;;9.35;3.72;;;;;;;;;;6202245;28;20237;-73
2022/06/11 15:04:03;;;;;;;9.85;3.33;;;;;;;;;;6210113;28;20241;-74
2022/06/11 15:07:33;;;;;;;9.10;3.00;;;;;;;;;;6207856;28;20622;-73
2022/06/11 15:11:01;;;;;;;8.82;4.28;;;;;;;;;;6202164;28;20232;-75
2022/06/11 15:14:34;;;;;;;7.95;3.13;;;;;;;;;;6199424;28;20326;-74
2022/06/11 15:17:59;;;;;;;9.23;3.85;;;;;;;;;;6186932;28;20319;-75
2022/06/11 15:21:24;;;;;;;8.07;4.10;;;;;;;;;;6206133;28;20650;-73
2022/06/11 15:24:47;;;;;;;7.22;4.30;;;;;;;;;;6207716;28;20756;-74
2022/06/11 15:28:10;;;;;;;8.30;3.00;;;;;;;;;;6204744;28;20229;-74
2022/06/11 15:31:31;;;;;;;10.30;4.00;;;;;;;;;;6201482;28;20237;-74
2022/06/11 15:34:56;;;;;;;10.95;5.03;;;;;;;;;;6206481;28;20224;-74
2022/06/11 15:38:17;;;;;;;5.72;3.13;;;;;;;;;;6202061;28;20257;-73
2022/06/11 15:41:40;;;;;;;8.90;3.28;;;;;;;;;;6206751;28;20260;-74
2022/06/11 15:45:04;;;;;;;10.57;3.75;;;;;;;;;;6203088;28;20257;-75
2022/06/11 15:48:31;;;;;;;7.28;3.25;;;;;;;;;;6208118;28;20269;-75
2022/06/11 15:52:12;;;;;;;8.27;4.15;;;;;;;;;;6203085;28;20233;-75
2022/06/11 15:55:37;;;;;;;11.25;3.97;;;;;;;;;;6206256;28;20241;-74
2022/06/11 15:59:07;;;;;;;12.35;4.32;;;;;;;;;;6198334;28;20233;-73
2022/06/11 16:02:29;;;;;;;10.98;3.95;;;;;;;;;;6203750;28;20598;-73
2022/06/11 16:05:54;;;;;;;9.23;4.00;;;;;;;;;;6205832;28;20233;-74
2022/06/11 16:09:17;;;;;;;9.35;3.85;;;;;;;;;;6203953;28;20615;-74
2022/06/11 16:12:38;;;;;;;9.32;4.03;;;;;;;;;;6204607;28;20229;-74
2022/06/11 16:16:03;;;;;;;9.13;3.67;;;;;;;;;;6192043;28;20611;-73
2022/06/11 16:19:26;;;;;;;14.40;4.88;;;;;;;;;;6205382;28;21139;-74
2022/06/11 16:22:47;;;;;;;7.22;3.40;;;;;;;;;;6198506;28;20236;-75
2022/06/11 16:26:08;;;;;;;9.27;3.67;;;;;;;;;;6201127;28;20324;-74
2022/06/11 16:29:30;;;;;;;11.35;4.10;;;;;;;;;;6205625;28;20225;-74
2022/06/11 16:32:51;;;;;;;6.63;3.00;;;;;;;;;;6204383;28;20225;-76
2022/06/11 16:36:27;;;;;;;12.38;4.22;;;;;;;;;;6205298;28;20279;-74
2022/06/11 16:39:49;;;;;;;11.85;4.15;;;;;;;;;;6202692;28;20233;-74
2022/06/11 16:43:14;;;;;;;6.60;3.40;;;;;;;;;;6207203;28;20506;-74
2022/06/11 16:46:35;;;;;;;10.00;4.10;;;;;;;;;;6202422;28;20237;-74
2022/06/11 16:57:17;;;;;;;12.50;4.88;;;;;;;;;;6203113;28;20237;-75
2022/06/11 17:00:40;;;;;;;9.32;3.60;;;;;;;;;;6201183;28;20220;-75
2022/06/11 17:04:01;;;;;;;5.80;3.20;;;;;;;;;;6205894;28;20236;-75
2022/06/11 17:07:25;;;;;;;8.02;4.03;;;;;;;;;;6202775;28;20248;-74
2022/06/11 17:10:49;;;;;;;11.02;3.65;;;;;;;;;;6193370;28;20237;-74
2022/06/11 17:14:16;;;;;;;6.25;2.55;;;;;;;;;;6203606;28;20626;-74
2022/06/11 17:17:38;;;;;;;11.30;4.38;;;;;;;;;;6204288;28;20228;-74
2022/06/11 17:20:59;;;;;;;6.82;3.08;;;;;;;;;;6201816;28;20233;-74
2022/06/11 17:24:25;;;;;;;10.27;3.75;;;;;;;;;;6198057;28;20249;-74
2022/06/11 17:27:48;;;;;;;7.90;4.63;;;;;;;;;;6197483;28;20237;-74
2022/06/11 17:31:18;;;;;;;11.98;5.82;;;;;;;;;;6200583;28;20649;-74
2022/06/11 17:34:39;;;;;;;8.45;3.45;;;;;;;;;;6207849;28;20228;-74
2022/06/11 17:38:00;;;;;;;6.97;3.42;;;;;;;;;;6201684;28;20260;-73
2022/06/11 17:41:21;;;;;;;9.80;3.85;;;;;;;;;;6203111;28;20256;-74
2022/06/11 17:44:44;;;;;;;11.70;3.92;;;;;;;;;;6203939;28;20240;-74
2022/06/11 17:48:04;;;;;;;6.50;3.08;;;;;;;;;;6208592;28;20232;-73
2022/06/11 17:51:26;;;;;;;7.05;3.38;;;;;;;;;;6204679;28;20783;-74
2022/06/11 17:54:46;;;;;;;8.25;3.78;;;;;;;;;;6212179;28;20233;-74
2022/06/11 17:58:07;;;;;;;6.25;3.50;;;;;;;;;;6205098;28;20233;-73
2022/06/11 18:01:32;;;;;;;6.43;3.15;;;;;;;;;;6207411;28;20308;-74
2022/06/11 18:04:52;;;;;;;7.18;3.30;;;;;;;;;;6209719;28;20324;-78
2022/06/11 18:08:13;;;;;;;7.57;4.20;;;;;;;;;;6197936;28;20233;-77
2022/06/11 18:11:33;;;;;;;8.27;3.45;;;;;;;;;;6205700;28;20233;-77
2022/06/11 18:14:54;;;;;;;8.43;3.35;;;;;;;;;;6206495;28;20403;-78
2022/06/11 18:18:19;;;;;;;6.40;3.10;;;;;;;;;;6205853;28;20225;-76
2022/06/11 18:25:18;;;;;;;9.60;3.25;;;;;;;;;;6198964;28;20232;-76
2022/06/11 18:28:39;;;;;;;5.50;2.83;;;;;;;;;;6209064;28;20229;-77
2022/06/11 18:32:00;;;;;;;11.57;3.75;;;;;;;;;;6207729;28;20312;-77
2022/06/11 18:35:23;;;;;;;6.80;2.83;;;;;;;;;;6210665;28;20983;-77
2022/06/11 18:38:43;;;;;;;8.75;3.30;;;;;;;;;;6204183;28;20229;-77
2022/06/11 18:42:04;;;;;;;8.98;3.53;;;;;;;;;;6204113;28;20229;-77
2022/06/11 18:45:25;;;;;;;7.20;3.10;;;;;;;;;;6201286;28;20233;-78
2022/06/11 18:48:45;;;;;;;6.22;2.80;;;;;;;;;;6200153;28;20497;-78
2022/06/11 18:52:07;;;;;;;6.68;2.90;;;;;;;;;;6209197;28;20308;-78
2022/06/11 18:55:29;;;;;;;10.35;4.90;;;;;;;;;;6203602;28;20237;-78
2022/06/11 18:58:51;;;;;;;11.75;4.05;;;;;;;;;;6204203;28;20248;-79
2022/06/11 19:02:12;;;;;;;10.73;3.47;;;;;;;;;;6209380;28;20226;-81
2022/06/11 19:05:32;;;;;;;11.40;2.65;;;;;;;;;;6196770;28;20233;-77
2022/06/11 19:08:54;;;;;;;11.10;4.03;;;;;;;;;;6200679;28;20618;-78
2022/06/11 19:12:15;;;;;;;7.43;3.15;;;;;;;;;;6207822;28;20715;-77
2022/06/11 19:15:35;;;;;;;7.95;3.65;;;;;;;;;;6204531;28;20766;-79
2022/06/11 19:18:57;;;;;;;5.70;3.25;;;;;;;;;;6201218;28;20740;-77
2022/06/11 19:22:18;;;;;;;5.85;2.38;;;;;;;;;;6200033;28;20245;-78
2022/06/11 19:25:41;;;;;;;7.68;3.10;;;;;;;;;;6205600;28;20225;-78
2022/06/11 19:29:04;;;;;;;11.32;4.15;;;;;;;;;;6204649;28;20234;-78
2022/06/11 19:32:24;;;;;;;6.32;2.90;;;;;;;;;;6206274;28;20237;-79
2022/06/11 19:35:46;;;;;;;6.25;2.97;;;;;;;;;;6206328;28;20225;-78
2022/06/11 19:39:08;;;;;;;8.57;2.88;;;;;;;;;;6205910;28;20229;-77
2022/06/11 19:42:30;;;;;;;6.30;4.13;;;;;;;;;;6202390;28;20249;-78
2022/06/11 19:45:51;;;;;;;6.45;3.38;;;;;;;;;;6199704;28;20602;-79
2022/06/11 19:49:12;;;;;;;6.72;3.35;;;;;;;;;;6204238;28;20229;-78
2022/06/11 19:52:34;;;;;;;10.15;3.88;;;;;;;;;;6202111;28;20233;-77
2022/06/11 19:55:55;;;;;;;8.63;3.13;;;;;;;;;;6202881;28;20602;-78
2022/06/11 19:59:17;;;;;;;8.82;3.90;;;;;;;;;;6203464;28;20225;-78
2022/06/11 20:02:37;;;;;;;6.47;2.60;;;;;;;;;;6202871;28;20252;-79
2022/06/11 20:06:04;;;;;;;7.15;3.92;;;;;;;;;;6203629;28;20232;-79
2022/06/11 20:09:24;;;;;;;8.00;3.33;;;;;;;;;;6201377;28;20229;-77
2022/06/11 20:12:45;;;;;;;7.72;3.65;;;;;;;;;;6202526;28;20434;-78
2022/06/11 20:16:08;;;;;;;10.50;2.85;;;;;;;;;;6204492;28;20691;-77
2022/06/11 20:19:29;;;;;;;9.15;3.40;;;;;;;;;;6205435;28;20245;-77
2022/06/11 20:22:51;;;;;;;8.10;3.22;;;;;;;;;;6204810;28;20259;-74
2022/06/11 20:26:13;;;;;;;8.13;3.17;;;;;;;;;;6201001;28;20241;-74
2022/06/11 20:29:34;;;;;;;11.40;3.05;;;;;;;;;;6191754;28;20233;-74
2022/06/11 20:32:55;;;;;;;4.68;2.75;;;;;;;;;;6199559;28;20228;-74